sensor_id;sensor_type;location;lat;lon;timestamp;pressure;altitude;pressure_sealevel;temperature;humidity
30730;BME280;17476;48.458;7.928;2023-07-09T00:00:50;100172.69;;;25.02;53.48
30730;BME280;17476;48.458;7.928;2023-07-09T00:03:17;100161.50;;;25.05;53.15
30730;BME280;17476;48.458;7.928;2023-07-09T00:05:47;100164.47;;;25.09;53.32
30730;BME280;17476;48.458;7.928;2023-07-09T00:08:30;100168.22;;;25.08;53.30
30730;BME280;17476;48.458;7.928;2023-07-09T00:10:57;100168.00;;;24.88;54.21
30730;BME280;17476;48.458;7.928;2023-07-09T00:13:26;100173.44;;;24.98;54.19
30730;BME280;17476;48.458;7.928;2023-07-09T00:16:00;100168.47;;;25.07;53.75
30730;BME280;17476;48.458;7.928;2023-07-09T00:18:33;100165.22;;;25.04;53.33
30730;BME280;17476;48.458;7.928;2023-07-09T00:21:00;100167.94;;;24.83;54.03
30730;BME280;17476;48.458;7.928;2023-07-09T00:23:27;100167.06;;;24.77;53.80
30730;BME280;17476;48.458;7.928;2023-07-09T00:25:53;100165.41;;;24.71;54.29
30730;BME280;17476;48.458;7.928;2023-07-09T00:28:19;100164.16;;;24.57;54.69
30730;BME280;17476;48.458;7.928;2023-07-09T00:30:47;100161.00;;;24.60;54.95
30730;BME280;17476;48.458;7.928;2023-07-09T00:33:15;100171.13;;;24.58;54.81
30730;BME280;17476;48.458;7.928;2023-07-09T00:35:48;100168.84;;;24.44;54.81
30730;BME280;17476;48.458;7.928;2023-07-09T00:38:19;100164.19;;;24.35;56.66
30730;BME280;17476;48.458;7.928;2023-07-09T00:41:17;100169.97;;;24.32;56.48
30730;BME280;17476;48.458;7.928;2023-07-09T00:43:46;100169.81;;;24.38;56.27
30730;BME280;17476;48.458;7.928;2023-07-09T00:49:04;100169.34;;;24.24;56.90
30730;BME280;17476;48.458;7.928;2023-07-09T00:51:34;100174.88;;;24.18;57.12
30730;BME280;17476;48.458;7.928;2023-07-09T00:54:21;100172.22;;;24.18;57.04
30730;BME280;17476;48.458;7.928;2023-07-09T00:56:51;100167.75;;;24.23;56.71
30730;BME280;17476;48.458;7.928;2023-07-09T00:59:23;100168.88;;;24.28;56.56
30730;BME280;17476;48.458;7.928;2023-07-09T01:01:50;100171.41;;;24.17;57.32
30730;BME280;17476;48.458;7.928;2023-07-09T01:07:59;100177.38;;;24.24;56.47
30730;BME280;17476;48.458;7.928;2023-07-09T01:10:25;100178.13;;;24.20;56.50
30730;BME280;17476;48.458;7.928;2023-07-09T01:12:51;100171.06;;;23.92;57.23
30730;BME280;17476;48.458;7.928;2023-07-09T01:15:17;100170.91;;;23.82;58.08
30730;BME280;17476;48.458;7.928;2023-07-09T01:17:43;100172.34;;;23.89;57.48
30730;BME280;17476;48.458;7.928;2023-07-09T01:20:18;100164.78;;;23.81;57.36
30730;BME280;17476;48.458;7.928;2023-07-09T01:22:48;100171.72;;;23.82;57.57
30730;BME280;17476;48.458;7.928;2023-07-09T01:25:16;100166.31;;;23.77;57.82
30730;BME280;17476;48.458;7.928;2023-07-09T01:27:45;100161.47;;;23.74;57.93
30730;BME280;17476;48.458;7.928;2023-07-09T01:30:34;100164.94;;;23.75;57.58
30730;BME280;17476;48.458;7.928;2023-07-09T01:33:01;100166.63;;;23.81;58.06
30730;BME280;17476;48.458;7.928;2023-07-09T01:35:31;100171.25;;;23.85;58.06
30730;BME280;17476;48.458;7.928;2023-07-09T01:37:58;100164.44;;;23.94;56.97
30730;BME280;17476;48.458;7.928;2023-07-09T01:40:26;100159.59;;;23.91;56.81
30730;BME280;17476;48.458;7.928;2023-07-09T01:42:54;100158.88;;;23.79;57.03
30730;BME280;17476;48.458;7.928;2023-07-09T01:45:21;100169.91;;;23.66;58.31
30730;BME280;17476;48.458;7.928;2023-07-09T01:47:49;100171.59;;;23.72;57.89
30730;BME280;17476;48.458;7.928;2023-07-09T01:50:17;100167.69;;;23.63;58.01
30730;BME280;17476;48.458;7.928;2023-07-09T01:52:44;100175.63;;;23.58;58.23
30730;BME280;17476;48.458;7.928;2023-07-09T01:55:13;100175.78;;;23.51;58.34
30730;BME280;17476;48.458;7.928;2023-07-09T01:57:48;100172.78;;;23.48;58.79
30730;BME280;17476;48.458;7.928;2023-07-09T02:00:17;100179.16;;;23.47;58.95
30730;BME280;17476;48.458;7.928;2023-07-09T02:02:45;100169.53;;;23.46;58.56
30730;BME280;17476;48.458;7.928;2023-07-09T02:05:15;100171.88;;;23.42;58.85
30730;BME280;17476;48.458;7.928;2023-07-09T02:07:42;100169.34;;;23.35;58.64
30730;BME280;17476;48.458;7.928;2023-07-09T02:10:09;100171.22;;;23.35;59.34
30730;BME280;17476;48.458;7.928;2023-07-09T02:12:35;100177.72;;;23.39;59.72
30730;BME280;17476;48.458;7.928;2023-07-09T02:15:01;100169.03;;;23.49;58.39
30730;BME280;17476;48.458;7.928;2023-07-09T02:17:27;100178.66;;;23.50;58.45
30730;BME280;17476;48.458;7.928;2023-07-09T02:19:53;100170.75;;;23.55;59.12
30730;BME280;17476;48.458;7.928;2023-07-09T02:22:19;100176.50;;;23.63;57.82
30730;BME280;17476;48.458;7.928;2023-07-09T02:24:45;100175.44;;;23.48;57.90
30730;BME280;17476;48.458;7.928;2023-07-09T02:27:17;100178.50;;;23.39;58.32
30730;BME280;17476;48.458;7.928;2023-07-09T02:29:43;100169.59;;;23.34;58.65
30730;BME280;17476;48.458;7.928;2023-07-09T02:32:09;100170.91;;;23.31;59.13
30730;BME280;17476;48.458;7.928;2023-07-09T02:34:39;100179.72;;;23.32;59.35
30730;BME280;17476;48.458;7.928;2023-07-09T02:37:05;100178.50;;;23.39;58.90
30730;BME280;17476;48.458;7.928;2023-07-09T02:39:31;100187.41;;;23.45;59.18
30730;BME280;17476;48.458;7.928;2023-07-09T02:41:57;100190.56;;;23.42;58.42
30730;BME280;17476;48.458;7.928;2023-07-09T02:44:23;100196.78;;;23.31;58.46
30730;BME280;17476;48.458;7.928;2023-07-09T02:46:49;100205.66;;;23.20;59.25
30730;BME280;17476;48.458;7.928;2023-07-09T02:49:16;100198.09;;;23.00;59.03
30730;BME280;17476;48.458;7.928;2023-07-09T02:51:42;100199.72;;;23.01;59.85
30730;BME280;17476;48.458;7.928;2023-07-09T02:54:08;100205.47;;;23.09;59.74
30730;BME280;17476;48.458;7.928;2023-07-09T02:56:34;100207.47;;;23.02;60.23
30730;BME280;17476;48.458;7.928;2023-07-09T02:59:00;100209.94;;;23.04;60.06
30730;BME280;17476;48.458;7.928;2023-07-09T03:01:26;100209.72;;;22.94;60.67
30730;BME280;17476;48.458;7.928;2023-07-09T03:03:57;100204.63;;;22.92;60.42
30730;BME280;17476;48.458;7.928;2023-07-09T03:06:26;100203.47;;;22.88;60.11
30730;BME280;17476;48.458;7.928;2023-07-09T03:08:52;100205.78;;;22.84;60.36
30730;BME280;17476;48.458;7.928;2023-07-09T03:11:20;100201.50;;;22.83;60.58
30730;BME280;17476;48.458;7.928;2023-07-09T03:13:47;100204.97;;;22.84;60.35
30730;BME280;17476;48.458;7.928;2023-07-09T03:16:14;100207.44;;;22.74;60.04
30730;BME280;17476;48.458;7.928;2023-07-09T03:18:40;100205.47;;;22.69;60.56
30730;BME280;17476;48.458;7.928;2023-07-09T03:21:09;100217.06;;;22.75;60.51
30730;BME280;17476;48.458;7.928;2023-07-09T03:23:34;100208.63;;;22.66;60.70
30730;BME280;17476;48.458;7.928;2023-07-09T03:26:00;100205.97;;;22.66;60.49
30730;BME280;17476;48.458;7.928;2023-07-09T03:28:26;100209.94;;;22.52;61.75
30730;BME280;17476;48.458;7.928;2023-07-09T03:30:54;100211.28;;;22.66;61.61
30730;BME280;17476;48.458;7.928;2023-07-09T03:33:24;100204.91;;;22.67;61.08
30730;BME280;17476;48.458;7.928;2023-07-09T03:35:51;100209.56;;;22.60;60.99
30730;BME280;17476;48.458;7.928;2023-07-09T03:38:18;100204.00;;;22.61;60.75
30730;BME280;17476;48.458;7.928;2023-07-09T03:40:44;100204.78;;;22.62;60.92
30730;BME280;17476;48.458;7.928;2023-07-09T03:43:11;100215.38;;;22.57;61.51
30730;BME280;17476;48.458;7.928;2023-07-09T03:45:38;100217.81;;;22.58;61.79
30730;BME280;17476;48.458;7.928;2023-07-09T03:48:05;100219.97;;;22.61;61.60
30730;BME280;17476;48.458;7.928;2023-07-09T03:50:31;100223.81;;;22.66;61.41
30730;BME280;17476;48.458;7.928;2023-07-09T03:52:57;100227.97;;;22.61;61.71
30730;BME280;17476;48.458;7.928;2023-07-09T03:55:23;100226.13;;;22.62;61.22
30730;BME280;17476;48.458;7.928;2023-07-09T03:57:55;100224.00;;;22.76;61.19
30730;BME280;17476;48.458;7.928;2023-07-09T04:00:21;100221.47;;;22.69;60.68
30730;BME280;17476;48.458;7.928;2023-07-09T04:02:48;100237.47;;;22.69;61.34
30730;BME280;17476;48.458;7.928;2023-07-09T04:05:14;100240.06;;;22.52;61.79
30730;BME280;17476;48.458;7.928;2023-07-09T04:07:40;100238.56;;;22.45;61.60
30730;BME280;17476;48.458;7.928;2023-07-09T04:10:06;100233.81;;;22.47;61.38
30730;BME280;17476;48.458;7.928;2023-07-09T04:12:33;100245.03;;;22.49;61.53
30730;BME280;17476;48.458;7.928;2023-07-09T04:14:58;100243.09;;;22.56;60.96
30730;BME280;17476;48.458;7.928;2023-07-09T04:17:24;100242.59;;;22.59;61.16
30730;BME280;17476;48.458;7.928;2023-07-09T04:19:51;100247.31;;;22.69;60.55
30730;BME280;17476;48.458;7.928;2023-07-09T04:22:17;100251.41;;;22.71;60.65
30730;BME280;17476;48.458;7.928;2023-07-09T04:24:44;100247.81;;;22.54;60.93
30730;BME280;17476;48.458;7.928;2023-07-09T04:27:10;100251.41;;;22.48;61.74
30730;BME280;17476;48.458;7.928;2023-07-09T04:29:36;100249.69;;;22.53;61.37
30730;BME280;17476;48.458;7.928;2023-07-09T04:32:22;100256.41;;;22.56;61.22
30730;BME280;17476;48.458;7.928;2023-07-09T04:34:48;100256.31;;;22.51;61.41
30730;BME280;17476;48.458;7.928;2023-07-09T04:37:15;100252.69;;;22.57;61.22
30730;BME280;17476;48.458;7.928;2023-07-09T04:39:44;100253.75;;;22.56;61.48
30730;BME280;17476;48.458;7.928;2023-07-09T04:42:13;100256.19;;;22.46;61.98
30730;BME280;17476;48.458;7.928;2023-07-09T04:44:40;100246.09;;;22.48;61.36
30730;BME280;17476;48.458;7.928;2023-07-09T04:47:06;100250.38;;;22.49;61.80
30730;BME280;17476;48.458;7.928;2023-07-09T04:49:32;100247.50;;;22.50;61.37
30730;BME280;17476;48.458;7.928;2023-07-09T04:51:59;100254.44;;;22.51;61.96
30730;BME280;17476;48.458;7.928;2023-07-09T04:54:26;100250.84;;;22.57;61.63
30730;BME280;17476;48.458;7.928;2023-07-09T04:56:52;100254.50;;;22.68;61.53
30730;BME280;17476;48.458;7.928;2023-07-09T04:59:19;100250.00;;;22.69;61.21
30730;BME280;17476;48.458;7.928;2023-07-09T05:01:45;100246.06;;;22.71;61.09
30730;BME280;17476;48.458;7.928;2023-07-09T05:04:11;100243.53;;;22.65;61.11
30730;BME280;17476;48.458;7.928;2023-07-09T05:06:37;100244.34;;;22.65;61.05
30730;BME280;17476;48.458;7.928;2023-07-09T05:09:04;100240.72;;;22.71;60.78
30730;BME280;17476;48.458;7.928;2023-07-09T05:11:35;100239.06;;;22.82;60.41
30730;BME280;17476;48.458;7.928;2023-07-09T05:14:02;100243.50;;;22.76;61.41
30730;BME280;17476;48.458;7.928;2023-07-09T05:16:28;100233.97;;;22.92;60.91
30730;BME280;17476;48.458;7.928;2023-07-09T05:18:54;100234.50;;;23.06;60.33
30730;BME280;17476;48.458;7.928;2023-07-09T05:21:20;100232.09;;;23.21;60.29
30730;BME280;17476;48.458;7.928;2023-07-09T05:23:46;100231.72;;;23.29;59.59
30730;BME280;17476;48.458;7.928;2023-07-09T05:26:12;100243.28;;;23.35;59.85
30730;BME280;17476;48.458;7.928;2023-07-09T05:28:38;100245.53;;;23.26;60.31
30730;BME280;17476;48.458;7.928;2023-07-09T05:31:05;100238.75;;;23.35;59.65
30730;BME280;17476;48.458;7.928;2023-07-09T05:33:31;100249.13;;;23.49;59.23
30730;BME280;17476;48.458;7.928;2023-07-09T05:35:57;100242.59;;;23.56;59.70
30730;BME280;17476;48.458;7.928;2023-07-09T05:38:23;100255.75;;;23.75;58.41
30730;BME280;17476;48.458;7.928;2023-07-09T05:41:02;100255.19;;;23.73;58.18
30730;BME280;17476;48.458;7.928;2023-07-09T05:43:30;100256.41;;;23.82;58.24
30730;BME280;17476;48.458;7.928;2023-07-09T05:45:56;100255.41;;;24.05;56.69
30730;BME280;17476;48.458;7.928;2023-07-09T05:48:22;100256.47;;;24.04;56.83
30730;BME280;17476;48.458;7.928;2023-07-09T05:50:52;100261.81;;;24.20;56.10
30730;BME280;17476;48.458;7.928;2023-07-09T05:53:18;100274.44;;;24.25;56.53
30730;BME280;17476;48.458;7.928;2023-07-09T05:55:44;100271.88;;;24.52;55.60
30730;BME280;17476;48.458;7.928;2023-07-09T05:58:10;100270.31;;;24.34;55.88
30730;BME280;17476;48.458;7.928;2023-07-09T06:00:36;100271.41;;;24.38;56.09
30730;BME280;17476;48.458;7.928;2023-07-09T06:03:03;100265.94;;;24.67;55.93
30730;BME280;17476;48.458;7.928;2023-07-09T06:05:33;100261.38;;;24.89;55.04
30730;BME280;17476;48.458;7.928;2023-07-09T06:07:59;100269.13;;;25.08;54.60
30730;BME280;17476;48.458;7.928;2023-07-09T06:10:25;100271.16;;;25.22;53.80
30730;BME280;17476;48.458;7.928;2023-07-09T06:12:51;100265.59;;;25.29;53.29
30730;BME280;17476;48.458;7.928;2023-07-09T06:15:18;100270.03;;;25.45;53.40
30730;BME280;17476;48.458;7.928;2023-07-09T06:17:44;100263.84;;;25.72;52.91
30730;BME280;17476;48.458;7.928;2023-07-09T06:20:10;100266.16;;;25.90;51.42
30730;BME280;17476;48.458;7.928;2023-07-09T06:22:36;100258.41;;;25.94;51.62
30730;BME280;17476;48.458;7.928;2023-07-09T06:25:02;100258.97;;;25.96;51.69
30730;BME280;17476;48.458;7.928;2023-07-09T06:27:28;100258.66;;;25.92;51.99
30730;BME280;17476;48.458;7.928;2023-07-09T06:29:54;100262.09;;;26.25;51.74
30730;BME280;17476;48.458;7.928;2023-07-09T06:32:20;100256.56;;;26.36;50.63
30730;BME280;17476;48.458;7.928;2023-07-09T06:34:46;100249.66;;;26.46;50.87
30730;BME280;17476;48.458;7.928;2023-07-09T06:37:12;100254.59;;;26.74;49.65
30730;BME280;17476;48.458;7.928;2023-07-09T06:39:38;100253.81;;;26.79;49.42
30730;BME280;17476;48.458;7.928;2023-07-09T06:42:04;100249.66;;;27.13;49.51
30730;BME280;17476;48.458;7.928;2023-07-09T06:44:30;100250.50;;;27.39;48.73
30730;BME280;17476;48.458;7.928;2023-07-09T06:46:56;100249.16;;;27.67;47.81
30730;BME280;17476;48.458;7.928;2023-07-09T06:49:22;100244.88;;;27.87;48.29
30730;BME280;17476;48.458;7.928;2023-07-09T06:51:48;100244.59;;;28.03;46.74
30730;BME280;17476;48.458;7.928;2023-07-09T06:54:13;100245.34;;;28.40;46.19
30730;BME280;17476;48.458;7.928;2023-07-09T06:56:41;100234.44;;;28.75;46.19
30730;BME280;17476;48.458;7.928;2023-07-09T06:59:13;100241.34;;;28.97;43.94
30730;BME280;17476;48.458;7.928;2023-07-09T07:01:39;100234.03;;;29.02;44.56
30730;BME280;17476;48.458;7.928;2023-07-09T07:04:05;100230.13;;;29.24;43.54
30730;BME280;17476;48.458;7.928;2023-07-09T07:06:30;100230.75;;;29.50;43.38
30730;BME280;17476;48.458;7.928;2023-07-09T07:08:56;100225.59;;;29.87;43.53
30730;BME280;17476;48.458;7.928;2023-07-09T07:11:22;100224.72;;;30.21;42.83
30730;BME280;17476;48.458;7.928;2023-07-09T07:13:48;100225.88;;;30.39;41.98
30730;BME280;17476;48.458;7.928;2023-07-09T07:16:17;100224.06;;;30.77;42.20
30730;BME280;17476;48.458;7.928;2023-07-09T07:18:42;100213.91;;;31.07;41.26
30730;BME280;17476;48.458;7.928;2023-07-09T07:21:08;100221.34;;;31.15;40.89
30730;BME280;17476;48.458;7.928;2023-07-09T07:23:35;100220.31;;;31.48;41.12
30730;BME280;17476;48.458;7.928;2023-07-09T07:26:01;100216.44;;;31.87;40.26
30730;BME280;17476;48.458;7.928;2023-07-09T07:28:27;100208.44;;;32.23;38.41
30730;BME280;17476;48.458;7.928;2023-07-09T07:31:04;100211.53;;;32.58;39.21
30730;BME280;17476;48.458;7.928;2023-07-09T07:33:31;100215.53;;;32.74;38.55
30730;BME280;17476;48.458;7.928;2023-07-09T07:35:56;100207.25;;;33.07;37.48
30730;BME280;17476;48.458;7.928;2023-07-09T07:38:22;100210.63;;;33.35;37.71
30730;BME280;17476;48.458;7.928;2023-07-09T07:40:48;100208.31;;;33.42;35.93
30730;BME280;17476;48.458;7.928;2023-07-09T07:43:17;100207.31;;;33.60;37.00
30730;BME280;17476;48.458;7.928;2023-07-09T07:45:43;100211.84;;;34.05;37.31
30730;BME280;17476;48.458;7.928;2023-07-09T07:48:10;100212.72;;;34.31;34.53
30730;BME280;17476;48.458;7.928;2023-07-09T07:50:36;100216.56;;;34.21;34.57
30730;BME280;17476;48.458;7.928;2023-07-09T07:53:03;100216.91;;;34.37;33.35
30730;BME280;17476;48.458;7.928;2023-07-09T07:55:29;100215.88;;;34.64;32.95
30730;BME280;17476;48.458;7.928;2023-07-09T07:57:55;100212.53;;;34.85;34.26
30730;BME280;17476;48.458;7.928;2023-07-09T08:00:22;100203.09;;;35.25;33.38
30730;BME280;17476;48.458;7.928;2023-07-09T08:02:48;100207.81;;;35.72;32.86
30730;BME280;17476;48.458;7.928;2023-07-09T08:05:14;100214.00;;;35.98;31.71
30730;BME280;17476;48.458;7.928;2023-07-09T08:07:43;100218.56;;;36.15;31.61
30730;BME280;17476;48.458;7.928;2023-07-09T08:10:10;100213.47;;;36.64;31.98
30730;BME280;17476;48.458;7.928;2023-07-09T08:12:37;100216.28;;;36.97;30.48
30730;BME280;17476;48.458;7.928;2023-07-09T08:15:04;100217.31;;;37.47;30.72
30730;BME280;17476;48.458;7.928;2023-07-09T08:17:31;100224.66;;;37.79;30.90
30730;BME280;17476;48.458;7.928;2023-07-09T08:19:57;100222.16;;;37.74;28.34
30730;BME280;17476;48.458;7.928;2023-07-09T08:22:23;100219.09;;;38.00;30.10
30730;BME280;17476;48.458;7.928;2023-07-09T08:24:49;100219.38;;;38.07;28.03
30730;BME280;17476;48.458;7.928;2023-07-09T08:27:16;100223.59;;;38.29;28.84
30730;BME280;17476;48.458;7.928;2023-07-09T08:29:42;100217.53;;;38.23;28.49
30730;BME280;17476;48.458;7.928;2023-07-09T08:32:10;100210.03;;;38.08;28.37
30730;BME280;17476;48.458;7.928;2023-07-09T08:34:38;100205.88;;;38.63;29.59
30730;BME280;17476;48.458;7.928;2023-07-09T08:37:05;100201.84;;;39.13;27.74
30730;BME280;17476;48.458;7.928;2023-07-09T08:39:31;100203.44;;;39.58;27.24
30730;BME280;17476;48.458;7.928;2023-07-09T08:42:06;100200.03;;;39.93;28.26
30730;BME280;17476;48.458;7.928;2023-07-09T08:45:20;100196.41;;;40.55;27.42
30730;BME280;17476;48.458;7.928;2023-07-09T08:48:09;100195.50;;;41.06;25.72
30730;BME280;17476;48.458;7.928;2023-07-09T08:50:47;100203.69;;;41.25;25.93
30730;BME280;17476;48.458;7.928;2023-07-09T08:53:22;100193.91;;;41.47;25.75
30730;BME280;17476;48.458;7.928;2023-07-09T08:55:54;100195.59;;;41.75;25.25
30730;BME280;17476;48.458;7.928;2023-07-09T08:58:28;100198.25;;;41.94;24.20
30730;BME280;17476;48.458;7.928;2023-07-09T09:01:21;100192.50;;;41.80;23.77
30730;BME280;17476;48.458;7.928;2023-07-09T09:03:58;100189.22;;;42.20;24.83
30730;BME280;17476;48.458;7.928;2023-07-09T09:06:31;100187.41;;;42.58;23.38
30730;BME280;17476;48.458;7.928;2023-07-09T09:09:21;100178.22;;;42.80;24.10
30730;BME280;17476;48.458;7.928;2023-07-09T09:14:44;100164.94;;;43.67;22.71
30730;BME280;17476;48.458;7.928;2023-07-09T09:17:23;100162.84;;;44.01;23.68
30730;BME280;17476;48.458;7.928;2023-07-09T09:20:21;100158.72;;;44.43;22.97
30730;BME280;17476;48.458;7.928;2023-07-09T09:23:09;100153.75;;;44.77;22.48
30730;BME280;17476;48.458;7.928;2023-07-09T09:25:42;100149.09;;;44.96;22.29
30730;BME280;17476;48.458;7.928;2023-07-09T09:28:11;100146.34;;;44.96;21.90
30730;BME280;17476;48.458;7.928;2023-07-09T09:30:37;100138.09;;;45.13;20.89
30730;BME280;17476;48.458;7.928;2023-07-09T09:33:09;100143.25;;;45.40;21.77
30730;BME280;17476;48.458;7.928;2023-07-09T09:35:41;100142.41;;;45.18;20.83
30730;BME280;17476;48.458;7.928;2023-07-09T09:38:17;100131.34;;;45.11;20.19
30730;BME280;17476;48.458;7.928;2023-07-09T09:40:43;100140.03;;;44.95;20.43
30730;BME280;17476;48.458;7.928;2023-07-09T09:43:15;100144.28;;;44.67;19.44
30730;BME280;17476;48.458;7.928;2023-07-09T09:45:46;100141.50;;;44.60;19.67
30730;BME280;17476;48.458;7.928;2023-07-09T09:48:39;100133.72;;;44.04;20.14
30730;BME280;17476;48.458;7.928;2023-07-09T09:51:05;100140.81;;;44.05;20.56
30730;BME280;17476;48.458;7.928;2023-07-09T09:53:39;100143.88;;;43.93;19.96
30730;BME280;17476;48.458;7.928;2023-07-09T09:56:17;100142.09;;;44.18;20.42
30730;BME280;17476;48.458;7.928;2023-07-09T09:58:44;100125.75;;;44.75;20.38
30730;BME280;17476;48.458;7.928;2023-07-09T10:01:17;100132.44;;;44.71;22.20
30730;BME280;17476;48.458;7.928;2023-07-09T10:03:46;100126.28;;;45.34;19.84
30730;BME280;17476;48.458;7.928;2023-07-09T10:06:19;100127.75;;;46.03;19.61
30730;BME280;17476;48.458;7.928;2023-07-09T10:11:48;100121.75;;;47.06;19.40
30730;BME280;17476;48.458;7.928;2023-07-09T10:17:17;100117.88;;;47.45;18.35
30730;BME280;17476;48.458;7.928;2023-07-09T10:19:56;100116.53;;;47.64;18.30
30730;BME280;17476;48.458;7.928;2023-07-09T10:25:48;100109.03;;;48.29;17.92
30730;BME280;17476;48.458;7.928;2023-07-09T10:36:48;100102.84;;;48.52;17.39
30730;BME280;17476;48.458;7.928;2023-07-09T10:39:27;100094.88;;;47.48;16.66
30730;BME280;17476;48.458;7.928;2023-07-09T10:42:00;100090.88;;;47.53;16.35
30730;BME280;17476;48.458;7.928;2023-07-09T10:44:36;100097.41;;;47.73;16.25
30730;BME280;17476;48.458;7.928;2023-07-09T10:47:18;100092.81;;;47.59;15.53
30730;BME280;17476;48.458;7.928;2023-07-09T10:49:52;100091.38;;;47.44;16.77
30730;BME280;17476;48.458;7.928;2023-07-09T10:52:29;100091.25;;;47.58;16.68
30730;BME280;17476;48.458;7.928;2023-07-09T10:58:30;100090.66;;;48.12;17.11
30730;BME280;17476;48.458;7.928;2023-07-09T11:00:57;100091.19;;;48.34;16.09
30730;BME280;17476;48.458;7.928;2023-07-09T11:03:49;100085.13;;;48.08;17.34
30730;BME280;17476;48.458;7.928;2023-07-09T11:06:30;100085.47;;;47.80;16.34
30730;BME280;17476;48.458;7.928;2023-07-09T11:08:58;100082.56;;;48.25;17.64
30730;BME280;17476;48.458;7.928;2023-07-09T11:11:38;100074.09;;;48.62;17.21
30730;BME280;17476;48.458;7.928;2023-07-09T11:16:46;100066.22;;;49.35;17.01
30730;BME280;17476;48.458;7.928;2023-07-09T11:19:17;100064.94;;;48.92;15.11
30730;BME280;17476;48.458;7.928;2023-07-09T11:22:06;100065.34;;;48.37;15.85
30730;BME280;17476;48.458;7.928;2023-07-09T11:24:52;100069.97;;;48.17;15.38
30730;BME280;17476;48.458;7.928;2023-07-09T11:27:26;100068.78;;;47.83;17.42
30730;BME280;17476;48.458;7.928;2023-07-09T11:32:51;100071.72;;;47.28;16.20
30730;BME280;17476;48.458;7.928;2023-07-09T11:35:28;100077.75;;;47.16;17.63
30730;BME280;17476;48.458;7.928;2023-07-09T11:37:55;100082.00;;;47.69;16.69
30730;BME280;17476;48.458;7.928;2023-07-09T11:40:23;100067.78;;;48.04;16.93
30730;BME280;17476;48.458;7.928;2023-07-09T11:42:55;100074.44;;;48.10;16.59
30730;BME280;17476;48.458;7.928;2023-07-09T11:45:40;100065.88;;;47.98;16.57
30730;BME280;17476;48.458;7.928;2023-07-09T11:48:25;100070.63;;;48.28;16.62
30730;BME280;17476;48.458;7.928;2023-07-09T11:50:55;100068.72;;;48.21;16.14
30730;BME280;17476;48.458;7.928;2023-07-09T11:53:36;100062.50;;;48.13;17.45
30730;BME280;17476;48.458;7.928;2023-07-09T11:56:08;100065.63;;;47.81;16.97
30730;BME280;17476;48.458;7.928;2023-07-09T11:58:34;100065.97;;;47.87;17.17
30730;BME280;17476;48.458;7.928;2023-07-09T12:01:01;100057.09;;;48.30;16.94
30730;BME280;17476;48.458;7.928;2023-07-09T12:03:35;100060.13;;;48.70;16.72
30730;BME280;17476;48.458;7.928;2023-07-09T12:08:43;100046.31;;;49.36;15.69
30730;BME280;17476;48.458;7.928;2023-07-09T12:11:25;100045.16;;;49.77;16.93
30730;BME280;17476;48.458;7.928;2023-07-09T12:13:52;100033.53;;;50.02;16.34
30730;BME280;17476;48.458;7.928;2023-07-09T12:16:25;100033.81;;;50.08;14.63
30730;BME280;17476;48.458;7.928;2023-07-09T12:18:52;100035.22;;;50.16;14.23
30730;BME280;17476;48.458;7.928;2023-07-09T12:21:19;100027.50;;;50.23;13.88
30730;BME280;17476;48.458;7.928;2023-07-09T12:23:45;100029.47;;;49.47;15.16
30730;BME280;17476;48.458;7.928;2023-07-09T12:26:15;100019.53;;;49.26;16.10
30730;BME280;17476;48.458;7.928;2023-07-09T12:28:41;100025.81;;;49.07;15.63
30730;BME280;17476;48.458;7.928;2023-07-09T12:31:14;100012.34;;;48.82;15.49
30730;BME280;17476;48.458;7.928;2023-07-09T12:33:48;100009.59;;;49.25;16.48
30730;BME280;17476;48.458;7.928;2023-07-09T12:36:18;100011.41;;;49.95;15.74
30730;BME280;17476;48.458;7.928;2023-07-09T12:38:49;100009.59;;;50.41;16.29
30730;BME280;17476;48.458;7.928;2023-07-09T12:41:38;99994.53;;;51.03;15.78
30730;BME280;17476;48.458;7.928;2023-07-09T12:44:05;99992.41;;;50.62;14.00
30730;BME280;17476;48.458;7.928;2023-07-09T12:46:31;99988.97;;;50.87;14.10
30730;BME280;17476;48.458;7.928;2023-07-09T12:48:58;99988.91;;;51.36;15.03
30730;BME280;17476;48.458;7.928;2023-07-09T12:51:28;99981.91;;;50.99;12.90
30730;BME280;17476;48.458;7.928;2023-07-09T12:54:14;99981.84;;;50.53;14.53
30730;BME280;17476;48.458;7.928;2023-07-09T12:56:40;99973.88;;;51.17;14.47
30730;BME280;17476;48.458;7.928;2023-07-09T12:59:26;99964.66;;;51.75;14.24
30730;BME280;17476;48.458;7.928;2023-07-09T13:02:22;99978.09;;;50.28;14.25
30730;BME280;17476;48.458;7.928;2023-07-09T13:04:49;99972.00;;;50.65;14.07
30730;BME280;17476;48.458;7.928;2023-07-09T13:09:55;99967.16;;;50.69;14.20
30730;BME280;17476;48.458;7.928;2023-07-09T13:12:30;99958.97;;;50.46;14.25
30730;BME280;17476;48.458;7.928;2023-07-09T13:14:57;99965.91;;;49.65;14.37
30730;BME280;17476;48.458;7.928;2023-07-09T13:17:27;99964.03;;;49.98;14.30
30730;BME280;17476;48.458;7.928;2023-07-09T13:19:53;99956.00;;;50.53;13.23
30730;BME280;17476;48.458;7.928;2023-07-09T13:22:21;99965.31;;;50.46;13.36
30730;BME280;17476;48.458;7.928;2023-07-09T13:24:47;99956.72;;;50.05;13.15
30730;BME280;17476;48.458;7.928;2023-07-09T13:27:14;99957.75;;;50.47;14.70
30730;BME280;17476;48.458;7.928;2023-07-09T13:29:41;99960.03;;;50.52;14.63
30730;BME280;17476;48.458;7.928;2023-07-09T13:32:12;99959.66;;;50.34;15.04
30730;BME280;17476;48.458;7.928;2023-07-09T13:34:39;99951.91;;;50.09;14.37
30730;BME280;17476;48.458;7.928;2023-07-09T13:37:14;99951.47;;;50.10;15.99
30730;BME280;17476;48.458;7.928;2023-07-09T13:39:41;99949.84;;;49.93;14.47
30730;BME280;17476;48.458;7.928;2023-07-09T13:42:15;99945.91;;;50.10;15.62
30730;BME280;17476;48.458;7.928;2023-07-09T13:44:44;99952.97;;;50.15;14.92